Time;durP1;ratioP1;P1;durP2;ratioP2;P2;SDS_P1;SDS_P2;PMS_P1;PMS_P2;Temp;Humidity;BMP_temperature;BMP_pressure;BME280_temperature;BME280_humidity;BME280_pressure;Samples;Min_cycle;Max_cycle;Signal;HPM_P1;HPM_P2
2022/12/01 00:01:39;;;;;;;22.80;11.03;;;3.00;99.90;;;;;;5012983;28;20653;-79
2022/12/01 00:04:06;;;;;;;20.87;11.03;;;3.00;99.90;;;;;;5025980;28;20234;-86
2022/12/01 00:06:33;;;;;;;21.83;11.03;;;3.00;99.90;;;;;;5034967;28;20294;-90
2022/12/01 00:11:48;;;;;;;21.10;11.17;;;2.90;99.90;;;;;;5018548;28;20586;-77
2022/12/01 00:14:16;;;;;;;21.90;11.33;;;2.80;99.90;;;;;;5029914;28;20197;-73
2022/12/01 00:16:46;;;;;;;21.97;11.43;;;2.80;99.90;;;;;;5016295;28;20223;-73
2022/12/01 00:19:13;;;;;;;21.37;11.80;;;2.80;99.90;;;;;;4998721;28;20196;-74
2022/12/01 00:21:40;;;;;;;23.07;11.43;;;2.80;99.90;;;;;;4998643;28;20645;-72
2022/12/01 00:24:17;;;;;;;28.23;11.73;;;2.80;99.90;;;;;;4998535;28;20274;-74
2022/12/01 00:26:48;;;;;;;20.30;11.13;;;2.90;99.90;;;;;;5004874;28;20216;-74
2022/12/01 00:29:43;;;;;;;22.73;11.97;;;2.90;99.90;;;;;;5004710;28;20668;-80
2022/12/01 00:32:11;;;;;;;23.00;11.23;;;2.90;99.90;;;;;;4995458;28;20201;-82
2022/12/01 00:34:39;;;;;;;24.00;12.07;;;2.90;99.90;;;;;;4995234;28;20204;-85
2022/12/01 00:37:06;;;;;;;21.77;11.77;;;2.90;99.90;;;;;;4996506;28;20188;-76
2022/12/01 00:39:33;;;;;;;22.17;11.73;;;2.80;99.90;;;;;;4995137;28;20276;-83
2022/12/01 00:42:00;;;;;;;22.43;11.93;;;2.90;99.90;;;;;;4995341;28;20292;-73
2022/12/01 00:44:32;;;;;;;23.07;12.23;;;2.90;99.90;;;;;;4965204;28;20740;-87
2022/12/01 00:46:59;;;;;;;23.00;11.90;;;2.80;99.90;;;;;;5019381;28;20199;-79
2022/12/01 00:49:26;;;;;;;22.43;12.53;;;2.80;99.90;;;;;;5017943;28;20191;-71
2022/12/01 00:51:53;;;;;;;22.43;12.07;;;2.80;99.90;;;;;;5034026;28;20204;-71
2022/12/01 00:54:20;;;;;;;23.10;12.17;;;2.90;99.90;;;;;;5034518;28;20191;-71
2022/12/01 00:56:48;;;;;;;24.37;12.63;;;2.80;99.90;;;;;;5023766;28;20310;-72
2022/12/01 00:59:15;;;;;;;23.40;12.77;;;2.80;99.90;;;;;;5016196;28;20197;-92
2022/12/01 01:01:42;;;;;;;22.30;12.13;;;2.80;99.90;;;;;;4998223;28;20606;-77
2022/12/01 01:04:09;;;;;;;24.80;12.60;;;2.80;99.90;;;;;;5026721;28;20211;-75
2022/12/01 01:06:36;;;;;;;24.50;12.60;;;2.80;99.90;;;;;;5002795;28;20200;-77
2022/12/01 01:09:03;;;;;;;23.30;12.83;;;2.80;99.90;;;;;;5014397;28;20270;-74
2022/12/01 01:11:30;;;;;;;24.53;12.27;;;2.80;99.90;;;;;;5025918;28;20209;-73
2022/12/01 01:13:58;;;;;;;23.73;12.97;;;2.80;99.90;;;;;;5035984;28;20714;-77
2022/12/01 01:16:25;;;;;;;24.03;12.63;;;2.80;99.90;;;;;;5035441;28;20194;-90
2022/12/01 01:18:52;;;;;;;24.17;13.37;;;2.80;99.90;;;;;;5026819;28;20653;-75
2022/12/01 01:21:20;;;;;;;32.60;13.83;;;2.80;99.90;;;;;;5014085;28;20224;-73
2022/12/01 01:23:49;;;;;;;26.40;13.27;;;2.80;99.90;;;;;;5013865;28;20196;-72
2022/12/01 01:26:17;;;;;;;26.27;13.00;;;2.90;99.90;;;;;;5014923;28;20664;-72
2022/12/01 01:28:46;;;;;;;26.07;13.30;;;2.90;99.90;;;;;;5013971;28;20283;-75
2022/12/01 01:31:16;;;;;;;24.63;13.23;;;2.80;99.90;;;;;;4997231;28;20314;-82
2022/12/01 01:33:46;;;;;;;24.57;13.20;;;2.80;99.90;;;;;;5015334;28;20241;-75
2022/12/01 01:36:15;;;;;;;24.93;13.20;;;2.80;99.90;;;;;;5025315;28;20200;-73
2022/12/01 01:38:45;;;;;;;31.10;13.23;;;2.70;99.90;;;;;;5025712;28;20227;-84
2022/12/01 01:41:13;;;;;;;26.13;13.67;;;2.80;99.90;;;;;;5017574;28;20195;-74
2022/12/01 01:43:42;;;;;;;28.13;13.53;;;2.80;99.90;;;;;;5016540;28;20227;-77
2022/12/01 01:46:21;;;;;;;22.03;12.27;;;2.80;99.90;;;;;;5013367;28;20315;-71
2022/12/01 01:49:06;;;;;;;25.27;12.83;;;2.80;99.90;;;;;;4998391;28;20192;-78
2022/12/01 01:51:48;;;;;;;24.07;12.83;;;2.80;99.90;;;;;;5014425;28;20661;-74
2022/12/01 01:54:26;;;;;;;23.87;13.10;;;2.80;99.90;;;;;;5002836;28;20669;-75
2022/12/01 01:56:56;;;;;;;24.07;12.17;;;2.80;99.90;;;;;;4985977;28;20232;-86
2022/12/01 01:59:31;;;;;;;26.47;13.50;;;2.70;99.90;;;;;;5014839;28;20211;-77
2022/12/01 02:02:05;;;;;;;24.43;13.20;;;2.70;99.90;;;;;;4997841;28;20196;-73
2022/12/01 02:04:39;;;;;;;24.43;13.33;;;2.70;99.90;;;;;;5004825;28;20275;-74
2022/12/01 02:07:10;;;;;;;25.27;13.77;;;2.70;99.90;;;;;;4994622;28;20196;-74
2022/12/01 02:09:37;;;;;;;28.83;14.03;;;2.70;99.90;;;;;;5009543;28;20285;-74
2022/12/01 02:12:55;;;;;;;23.17;12.70;;;2.70;99.90;;;;;;5009751;28;20263;-74
2022/12/01 02:15:31;;;;;;;24.67;13.47;;;2.60;99.90;;;;;;4930140;29;20308;-74
2022/12/01 02:18:20;;;;;;;25.23;13.40;;;2.60;99.90;;;;;;4930934;29;20207;-74
2022/12/01 02:21:05;;;;;;;25.87;13.50;;;2.70;99.90;;;;;;4918854;29;20667;-75
2022/12/01 02:23:54;;;;;;;25.10;13.83;;;2.70;99.90;;;;;;4916429;29;20238;-75
2022/12/01 02:26:58;;;;;;;25.83;13.47;;;2.70;99.90;;;;;;4934119;29;20221;-75
2022/12/01 02:29:54;;;;;;;23.53;13.27;;;2.70;99.90;;;;;;4938708;29;20706;-85
2022/12/01 02:32:47;;;;;;;23.53;13.40;;;2.80;99.90;;;;;;4953552;29;20209;-74
2022/12/01 02:35:21;;;;;;;23.63;12.57;;;2.70;99.90;;;;;;4902559;29;20258;-79
2022/12/01 02:38:02;;;;;;;24.93;13.40;;;2.70;99.90;;;;;;4932724;29;20198;-74
2022/12/01 02:41:10;;;;;;;26.13;13.70;;;2.70;99.90;;;;;;4918297;29;21119;-75
2022/12/01 02:44:17;;;;;;;25.23;12.97;;;2.70;99.90;;;;;;4920438;29;20222;-86
2022/12/01 02:46:54;;;;;;;25.90;13.37;;;2.80;99.90;;;;;;4933530;29;20203;-83
2022/12/01 02:49:29;;;;;;;24.60;12.80;;;2.70;99.90;;;;;;4913132;29;20261;-73
2022/12/01 02:51:57;;;;;;;25.10;13.20;;;2.70;99.90;;;;;;4973352;28;20300;-85
2022/12/01 02:54:27;;;;;;;25.27;14.33;;;2.80;99.90;;;;;;4972648;28;20201;-86
2022/12/01 02:56:54;;;;;;;22.87;12.73;;;2.80;99.90;;;;;;4972223;28;20663;-85
2022/12/01 02:59:21;;;;;;;25.50;13.43;;;2.70;99.90;;;;;;4976283;28;20194;-84
2022/12/01 03:01:49;;;;;;;25.20;13.53;;;2.70;99.90;;;;;;4962380;28;20202;-86
2022/12/01 03:04:47;;;;;;;25.10;13.23;;;2.80;99.90;;;;;;4961786;28;20228;-85
2022/12/01 03:07:35;;;;;;;26.90;13.30;;;2.80;99.90;;;;;;4968089;28;20200;-87
2022/12/01 03:10:37;;;;;;;26.77;13.30;;;2.80;99.90;;;;;;4980410;28;20615;-87
2022/12/01 03:13:23;;;;;;;22.50;12.90;;;2.70;99.90;;;;;;4939296;29;20229;-87
2022/12/01 03:16:03;;;;;;;25.43;13.73;;;2.70;99.90;;;;;;4918367;29;20198;-88
2022/12/01 03:18:57;;;;;;;26.43;13.77;;;2.60;99.90;;;;;;4934253;29;20224;-88
2022/12/01 03:21:24;;;;;;;24.63;13.77;;;2.60;99.90;;;;;;4934050;29;20286;-77
2022/12/01 03:24:06;;;;;;;24.50;13.77;;;2.60;99.90;;;;;;4926704;29;20583;-74
2022/12/01 03:26:36;;;;;;;23.80;13.63;;;2.60;99.90;;;;;;4901608;29;20581;-77
2022/12/01 03:29:12;;;;;;;28.20;13.67;;;2.60;99.90;;;;;;4935913;29;20195;-75
2022/12/01 03:31:49;;;;;;;21.67;12.80;;;2.70;99.90;;;;;;4923570;29;20203;-80
2022/12/01 03:34:30;;;;;;;25.30;13.27;;;2.60;99.90;;;;;;4919745;29;20675;-75
2022/12/01 03:37:05;;;;;;;23.27;13.47;;;2.60;99.90;;;;;;4903060;29;20196;-75
2022/12/01 03:39:34;;;;;;;24.07;13.37;;;2.50;99.90;;;;;;4902810;29;20245;-82
2022/12/01 03:42:12;;;;;;;26.37;13.63;;;2.50;99.90;;;;;;4902711;29;20684;-83
2022/12/01 03:44:50;;;;;;;29.13;14.10;;;2.60;99.90;;;;;;4908048;29;20228;-77
2022/12/01 03:47:22;;;;;;;21.93;12.43;;;2.60;99.90;;;;;;4967328;28;20620;-79
2022/12/01 03:49:50;;;;;;;25.10;13.80;;;2.60;99.90;;;;;;4996057;28;20193;-80
2022/12/01 03:52:29;;;;;;;24.73;14.10;;;2.70;99.90;;;;;;4996388;28;20560;-77
2022/12/01 03:55:10;;;;;;;24.23;12.97;;;2.60;99.90;;;;;;4995926;28;20296;-80
2022/12/01 03:57:47;;;;;;;23.43;13.03;;;2.70;99.90;;;;;;4997096;28;20685;-74
2022/12/01 04:00:18;;;;;;;24.47;12.77;;;2.60;99.90;;;;;;4996128;28;20300;-74
2022/12/01 04:02:45;;;;;;;23.30;13.23;;;2.70;99.90;;;;;;4997400;28;20207;-78
2022/12/01 04:05:12;;;;;;;26.40;13.97;;;2.60;99.90;;;;;;4995728;28;20796;-74
2022/12/01 04:07:40;;;;;;;32.37;14.60;;;2.60;99.90;;;;;;4996301;28;20217;-81
2022/12/01 04:10:07;;;;;;;29.30;14.53;;;2.60;99.90;;;;;;5008975;28;20188;-87
2022/12/01 04:12:34;;;;;;;24.50;13.57;;;2.60;99.90;;;;;;5008109;28;20654;-87
2022/12/01 04:15:08;;;;;;;24.70;13.67;;;2.60;99.90;;;;;;5031711;28;20651;-88
2022/12/01 04:17:35;;;;;;;24.23;14.23;;;2.60;99.90;;;;;;5015802;28;20192;-87
2022/12/01 04:20:05;;;;;;;25.77;13.17;;;2.60;99.90;;;;;;5000431;28;20206;-88
2022/12/01 04:22:37;;;;;;;24.80;13.87;;;2.70;99.90;;;;;;4996022;28;20205;-83
2022/12/01 04:25:06;;;;;;;25.10;14.10;;;2.70;99.90;;;;;;4996638;28;20209;-85
2022/12/01 04:27:33;;;;;;;24.07;13.10;;;2.60;99.90;;;;;;4995480;28;20213;-87
2022/12/01 04:30:00;;;;;;;23.43;13.37;;;2.70;99.90;;;;;;5011929;28;20197;-87
2022/12/01 04:32:28;;;;;;;29.00;13.93;;;2.70;99.90;;;;;;4995326;28;20765;-87
2022/12/01 04:34:55;;;;;;;24.93;13.13;;;2.70;99.90;;;;;;4995866;28;20181;-87
2022/12/01 04:37:22;;;;;;;27.23;14.07;;;2.70;99.90;;;;;;5012021;28;20199;-87
2022/12/01 04:39:49;;;;;;;26.20;13.80;;;2.70;99.90;;;;;;5010244;28;20203;-86
2022/12/01 04:42:16;;;;;;;24.63;13.40;;;2.60;99.90;;;;;;5012050;28;20216;-80
2022/12/01 04:44:46;;;;;;;25.37;14.00;;;2.70;99.90;;;;;;5007104;28;20606;-82
2022/12/01 04:47:13;;;;;;;21.67;12.70;;;2.60;99.90;;;;;;5023563;28;20716;-89
2022/12/01 04:49:40;;;;;;;25.47;14.07;;;2.60;99.90;;;;;;4998326;28;20204;-90
2022/12/01 04:52:10;;;;;;;26.33;14.13;;;2.60;99.90;;;;;;4998385;28;20200;-90
2022/12/01 04:54:37;;;;;;;26.37;14.27;;;2.70;99.90;;;;;;4998237;28;20255;-89
2022/12/01 04:57:04;;;;;;;26.33;13.73;;;2.70;99.90;;;;;;4998348;28;20199;-77
2022/12/01 04:59:33;;;;;;;25.17;14.30;;;2.70;99.90;;;;;;5014638;28;20283;-77
2022/12/01 05:02:02;;;;;;;25.87;13.30;;;2.70;99.90;;;;;;5007123;28;20561;-75
2022/12/01 05:04:31;;;;;;;27.13;14.50;;;2.70;99.90;;;;;;5031408;28;20200;-74
2022/12/01 05:07:01;;;;;;;30.87;14.77;;;2.70;99.90;;;;;;5035168;28;20766;-82
2022/12/01 05:09:28;;;;;;;27.47;14.10;;;2.70;99.90;;;;;;5017242;28;20211;-75
2022/12/01 05:11:55;;;;;;;26.47;13.63;;;2.70;99.90;;;;;;5035340;28;20202;-72
2022/12/01 05:14:23;;;;;;;26.77;14.60;;;2.70;99.90;;;;;;5014372;28;20287;-76
2022/12/01 05:16:53;;;;;;;28.33;14.67;;;2.70;99.90;;;;;;5014040;28;20641;-78
2022/12/01 05:22:06;;;;;;;29.07;14.93;;;2.80;99.90;;;;;;5033589;28;20187;-77
2022/12/01 05:24:33;;;;;;;31.93;15.03;;;2.70;99.90;;;;;;5015160;28;20184;-78
2022/12/01 05:27:00;;;;;;;28.40;14.87;;;2.70;99.90;;;;;;4997597;28;20216;-87
2022/12/01 05:29:27;;;;;;;35.47;15.67;;;2.80;99.90;;;;;;5013669;28;20195;-76
2022/12/01 05:31:53;;;;;;;27.80;14.40;;;2.80;99.90;;;;;;4997563;28;20192;-79
2022/12/01 05:34:21;;;;;;;27.90;14.63;;;2.70;99.90;;;;;;4997871;28;20192;-86
2022/12/01 05:36:48;;;;;;;26.93;14.77;;;2.80;99.90;;;;;;5013694;28;20641;-76
2022/12/01 05:39:15;;;;;;;29.97;14.17;;;2.70;99.90;;;;;;5008024;28;20218;-73
2022/12/01 05:41:42;;;;;;;25.53;13.90;;;2.70;99.90;;;;;;5001095;28;20215;-79
2022/12/01 05:44:09;;;;;;;31.20;14.40;;;2.70;99.90;;;;;;5016772;28;20230;-85
2022/12/01 05:46:36;;;;;;;27.70;14.70;;;2.80;99.90;;;;;;5017208;28;20323;-77
2022/12/01 05:49:03;;;;;;;30.53;14.77;;;2.80;99.90;;;;;;4997316;28;20254;-88
2022/12/01 05:51:30;;;;;;;27.07;14.63;;;2.80;99.90;;;;;;5013771;28;20243;-78
2022/12/01 05:53:58;;;;;;;25.20;14.27;;;2.70;99.90;;;;;;5013506;28;20206;-83
2022/12/01 05:56:25;;;;;;;26.87;14.17;;;2.70;99.90;;;;;;5015019;28;20195;-84
2022/12/01 05:58:52;;;;;;;28.20;14.67;;;2.70;99.90;;;;;;5013374;28;20645;-91
2022/12/01 06:01:20;;;;;;;28.33;14.43;;;2.70;99.90;;;;;;4997542;28;20207;-75
2022/12/01 06:03:47;;;;;;;27.27;14.80;;;2.70;99.90;;;;;;5013505;28;20204;-79
2022/12/01 06:06:26;;;;;;;25.47;14.03;;;2.70;99.90;;;;;;5012714;28;20536;-75
2022/12/01 06:08:58;;;;;;;25.40;14.03;;;2.70;99.90;;;;;;4978101;28;20223;-76
2022/12/01 06:11:25;;;;;;;24.90;13.70;;;2.70;99.90;;;;;;5006949;28;20196;-86
2022/12/01 06:13:52;;;;;;;26.20;14.13;;;2.60;99.90;;;;;;5013807;28;20222;-74
2022/12/01 06:16:19;;;;;;;24.73;13.87;;;2.70;99.90;;;;;;5013001;28;20295;-77
2022/12/01 06:18:48;;;;;;;25.07;13.70;;;2.70;99.90;;;;;;5014316;28;20184;-75
2022/12/01 06:21:15;;;;;;;25.40;13.27;;;2.70;99.90;;;;;;5013378;28;20203;-80
2022/12/01 06:23:44;;;;;;;28.07;13.83;;;2.60;99.90;;;;;;5016753;28;20191;-74
2022/12/01 06:26:11;;;;;;;24.13;13.10;;;2.60;99.90;;;;;;5025859;28;20226;-88
2022/12/01 06:28:38;;;;;;;24.13;13.67;;;2.60;99.90;;;;;;5012426;28;20683;-89
2022/12/01 06:31:05;;;;;;;23.80;13.73;;;2.60;99.90;;;;;;5012263;28;20196;-74
2022/12/01 06:33:32;;;;;;;22.70;12.67;;;2.70;99.90;;;;;;5011168;28;20196;-84
2022/12/01 06:36:01;;;;;;;23.90;13.20;;;2.60;99.90;;;;;;5012774;28;20223;-79
2022/12/01 06:38:33;;;;;;;24.00;13.27;;;2.60;99.90;;;;;;5023713;28;20558;-84
2022/12/01 06:41:01;;;;;;;22.70;13.20;;;2.60;99.90;;;;;;5014142;28;20200;-81
2022/12/01 06:43:29;;;;;;;26.30;14.13;;;2.70;99.90;;;;;;5012982;28;20197;-74
2022/12/01 06:45:55;;;;;;;26.20;14.20;;;2.70;99.90;;;;;;5013299;28;20725;-81
2022/12/01 06:48:28;;;;;;;24.13;13.43;;;2.70;99.90;;;;;;5005484;28;20200;-76
2022/12/01 06:50:59;;;;;;;24.20;12.93;;;2.70;99.90;;;;;;5013858;28;20188;-76
2022/12/01 06:53:27;;;;;;;25.03;13.40;;;2.80;99.90;;;;;;5012403;28;20257;-83
2022/12/01 06:56:03;;;;;;;26.17;13.13;;;2.80;99.90;;;;;;5013051;28;20253;-85
2022/12/01 06:58:30;;;;;;;22.10;12.47;;;2.80;99.90;;;;;;5012705;28;20203;-90
2022/12/01 07:00:58;;;;;;;23.33;12.33;;;2.80;99.90;;;;;;5005067;28;20200;-89
2022/12/01 07:03:30;;;;;;;22.73;12.97;;;2.70;99.90;;;;;;5012336;28;20200;-84
2022/12/01 07:06:00;;;;;;;21.27;12.07;;;2.70;99.90;;;;;;4995669;28;20220;-82
2022/12/01 07:08:28;;;;;;;20.50;12.03;;;2.80;99.90;;;;;;5012748;28;20220;-84
2022/12/01 07:11:04;;;;;;;22.30;12.23;;;2.80;99.90;;;;;;5013572;28;20262;-76
2022/12/01 07:13:31;;;;;;;22.33;12.57;;;2.80;99.90;;;;;;5013538;28;20723;-76
2022/12/01 07:16:03;;;;;;;21.93;12.50;;;2.80;99.90;;;;;;5012440;28;20276;-75
2022/12/01 07:18:33;;;;;;;20.80;12.43;;;2.80;99.90;;;;;;5012195;28;20287;-76
2022/12/01 07:21:05;;;;;;;20.10;11.80;;;2.80;99.90;;;;;;4987575;28;20247;-74
2022/12/01 07:23:33;;;;;;;20.73;11.87;;;2.80;99.90;;;;;;4993834;28;20627;-76
2022/12/01 07:26:01;;;;;;;22.43;12.50;;;2.80;99.90;;;;;;4976374;28;20213;-76
2022/12/01 07:28:28;;;;;;;24.27;13.27;;;2.80;99.90;;;;;;4996006;28;20566;-73
2022/12/01 07:31:14;;;;;;;24.17;12.93;;;2.80;99.90;;;;;;5010952;28;20203;-75
2022/12/01 07:33:41;;;;;;;22.90;13.03;;;2.70;99.90;;;;;;4995677;28;20213;-83
2022/12/01 07:36:20;;;;;;;21.07;12.37;;;2.70;99.90;;;;;;4978159;28;20200;-80
2022/12/01 07:38:47;;;;;;;21.33;12.43;;;2.60;99.90;;;;;;4992143;28;20617;-81
2022/12/01 07:41:19;;;;;;;19.63;11.93;;;2.70;99.90;;;;;;5009848;28;20204;-76
2022/12/01 07:43:47;;;;;;;22.90;12.33;;;2.60;99.90;;;;;;4994029;28;20229;-76
2022/12/01 07:46:19;;;;;;;21.20;11.47;;;2.60;99.90;;;;;;5007114;28;20247;-75
2022/12/01 07:48:50;;;;;;;22.13;12.23;;;2.70;99.90;;;;;;4993645;28;20249;-77
2022/12/01 07:51:19;;;;;;;22.23;12.20;;;2.80;99.90;;;;;;4991101;28;20202;-73
2022/12/01 07:53:48;;;;;;;34.80;14.50;;;2.70;99.90;;;;;;4988951;28;20213;-73
2022/12/01 07:56:16;;;;;;;24.47;13.07;;;2.80;99.90;;;;;;4993638;28;20661;-77
2022/12/01 07:58:43;;;;;;;22.13;12.57;;;2.80;99.90;;;;;;5009568;28;20750;-74
2022/12/01 08:01:16;;;;;;;24.50;12.70;;;2.80;99.90;;;;;;4994237;28;20201;-79
2022/12/01 08:03:44;;;;;;;27.67;12.53;;;2.70;99.90;;;;;;4989433;28;20205;-72
2022/12/01 08:06:11;;;;;;;29.43;13.50;;;2.70;99.90;;;;;;5001318;28;20565;-81
2022/12/01 08:08:41;;;;;;;23.23;12.47;;;2.70;99.90;;;;;;4992310;28;20279;-74
2022/12/01 08:11:24;;;;;;;23.40;12.67;;;2.80;99.90;;;;;;4992042;28;20248;-77
2022/12/01 08:13:52;;;;;;;23.43;12.63;;;2.60;99.90;;;;;;5007506;28;20199;-82
2022/12/01 08:16:23;;;;;;;23.10;12.83;;;2.70;99.90;;;;;;5014678;28;20278;-79
2022/12/01 08:18:51;;;;;;;25.75;15.73;;;2.70;99.90;;;;;;4999008;28;20453;-80
2022/12/01 08:21:26;;;;;;;32.53;14.77;;;2.80;99.90;;;;;;4995606;28;20202;-82
2022/12/01 08:24:12;;;;;;;28.00;14.27;;;2.80;99.90;;;;;;5011257;28;20201;-75
2022/12/01 08:26:57;;;;;;;25.70;14.07;;;2.80;99.90;;;;;;4996437;28;20227;-75
2022/12/01 08:29:25;;;;;;;26.33;13.70;;;2.70;99.90;;;;;;4981731;28;20200;-76
2022/12/01 08:31:52;;;;;;;32.27;15.00;;;2.70;99.90;;;;;;5012406;28;20294;-77
2022/12/01 08:34:25;;;;;;;27.03;14.20;;;2.70;99.90;;;;;;4995039;28;20208;-78
2022/12/01 08:36:52;;;;;;;28.43;14.83;;;2.70;99.90;;;;;;4994691;28;20205;-77
2022/12/01 08:39:20;;;;;;;29.30;14.73;;;2.80;99.90;;;;;;5014494;28;20287;-82
2022/12/01 08:41:50;;;;;;;33.37;14.53;;;2.80;99.90;;;;;;5010816;28;20276;-94
2022/12/01 08:44:27;;;;;;;33.57;15.80;;;2.80;99.90;;;;;;4998795;28;20276;-91
2022/12/01 08:47:02;;;;;;;30.00;15.93;;;2.70;99.90;;;;;;5024818;28;20711;-83
2022/12/01 08:49:41;;;;;;;33.10;16.17;;;2.70;99.90;;;;;;4995851;28;20562;-76
2022/12/01 08:52:20;;;;;;;35.07;15.73;;;2.70;99.90;;;;;;5012780;28;20609;-78
2022/12/01 08:54:47;;;;;;;31.47;16.00;;;2.70;99.90;;;;;;5014137;28;20274;-74
2022/12/01 08:57:14;;;;;;;30.37;15.43;;;2.60;99.90;;;;;;5016271;28;20602;-76
2022/12/01 08:59:43;;;;;;;28.27;14.70;;;2.60;99.90;;;;;;5017272;28;20200;-77
2022/12/01 09:02:17;;;;;;;31.80;15.43;;;2.60;99.90;;;;;;5035351;28;20200;-78
2022/12/01 09:04:50;;;;;;;32.27;16.13;;;2.50;99.90;;;;;;5010942;28;20556;-79
2022/12/01 09:07:21;;;;;;;32.57;15.83;;;2.60;99.90;;;;;;4993218;28;20203;-76
2022/12/01 09:10:04;;;;;;;30.30;15.83;;;2.60;99.90;;;;;;5012622;28;20188;-79
2022/12/01 09:12:31;;;;;;;33.27;15.47;;;2.60;99.90;;;;;;5009196;28;20619;-76
2022/12/01 09:15:13;;;;;;;33.20;16.77;;;2.50;99.90;;;;;;5008439;28;20283;-77
2022/12/01 09:17:46;;;;;;;31.97;15.50;;;2.60;99.90;;;;;;5009315;28;20201;-72
2022/12/01 09:20:19;;;;;;;34.00;16.30;;;2.60;99.90;;;;;;5010186;28;20196;-75
2022/12/01 09:22:52;;;;;;;35.90;17.27;;;2.70;99.90;;;;;;5013939;28;20203;-76
2022/12/01 09:25:20;;;;;;;35.00;17.50;;;2.70;99.90;;;;;;5006696;28;20196;-76
2022/12/01 09:27:50;;;;;;;36.53;17.37;;;2.70;99.90;;;;;;5007398;28;20318;-74
2022/12/01 09:30:17;;;;;;;35.93;16.70;;;2.60;99.90;;;;;;5003255;28;20702;-81
2022/12/01 09:32:47;;;;;;;36.67;16.53;;;2.70;99.90;;;;;;5010185;28;20653;-81
2022/12/01 09:35:14;;;;;;;36.43;17.63;;;2.60;99.90;;;;;;5024680;28;20196;-83
2022/12/01 09:37:46;;;;;;;31.83;16.23;;;2.60;99.90;;;;;;5013008;28;20200;-73
2022/12/01 09:40:14;;;;;;;35.27;15.87;;;2.60;99.90;;;;;;5009664;28;20282;-73
2022/12/01 09:42:44;;;;;;;29.37;15.80;;;2.60;99.90;;;;;;5015039;28;20197;-73
2022/12/01 09:45:24;;;;;;;25.83;13.67;;;2.60;99.90;;;;;;5013182;28;20282;-74
2022/12/01 09:47:54;;;;;;;27.30;14.10;;;2.70;99.90;;;;;;4993730;28;20275;-74
2022/12/01 09:50:24;;;;;;;26.73;13.50;;;2.70;99.90;;;;;;5027762;28;20194;-75
2022/12/01 09:52:56;;;;;;;26.17;13.47;;;2.80;99.90;;;;;;5016616;28;20204;-73
2022/12/01 09:55:24;;;;;;;28.63;13.60;;;2.80;99.90;;;;;;5016328;28;20533;-75
2022/12/01 09:57:56;;;;;;;33.10;14.83;;;2.70;99.90;;;;;;4994062;28;20207;-75
2022/12/01 10:00:31;;;;;;;30.40;15.07;;;2.80;99.90;;;;;;5010169;28;20272;-74
2022/12/01 10:03:10;;;;;;;33.83;14.43;;;2.70;99.90;;;;;;5012506;28;20282;-77
2022/12/01 10:05:56;;;;;;;34.10;15.47;;;2.70;99.90;;;;;;5017012;28;20184;-77
2022/12/01 10:08:56;;;;;;;30.27;14.77;;;2.80;99.90;;;;;;5009359;28;20212;-72
2022/12/01 10:11:34;;;;;;;30.00;15.03;;;2.80;99.90;;;;;;5011387;28;20206;-77
2022/12/01 10:14:03;;;;;;;32.57;15.43;;;2.80;99.90;;;;;;4992554;28;20198;-80
2022/12/01 10:16:41;;;;;;;30.53;15.97;;;2.80;99.90;;;;;;5008513;28;20193;-73
2022/12/01 10:19:31;;;;;;;34.30;17.30;;;2.80;99.90;;;;;;4988921;28;20199;-82
2022/12/01 10:22:16;;;;;;;36.43;17.43;;;2.70;99.90;;;;;;5011030;28;20196;-79
2022/12/01 10:25:11;;;;;;;40.63;17.23;;;2.70;99.90;;;;;;5010355;28;20246;-80
2022/12/01 10:28:01;;;;;;;62.23;18.33;;;2.70;99.90;;;;;;4994108;28;20232;-82
2022/12/01 10:30:28;;;;;;;34.60;16.93;;;2.70;99.90;;;;;;5006875;28;20189;-82
2022/12/01 10:33:18;;;;;;;36.87;16.97;;;2.70;99.90;;;;;;5011061;28;20197;-81
2022/12/01 10:35:45;;;;;;;34.93;16.77;;;2.70;99.90;;;;;;5011040;28;20196;-84
2022/12/01 10:38:34;;;;;;;36.13;17.43;;;2.60;99.90;;;;;;4995353;28;20197;-85
2022/12/01 10:41:03;;;;;;;35.60;17.90;;;2.60;99.90;;;;;;5024100;28;20666;-86
2022/12/01 10:43:49;;;;;;;44.00;17.77;;;2.60;99.90;;;;;;5031946;28;20192;-81
2022/12/01 10:46:44;;;;;;;38.00;17.57;;;2.60;99.90;;;;;;5031694;28;20606;-73
2022/12/01 10:49:13;;;;;;;39.37;17.93;;;2.60;99.90;;;;;;5014453;28;20204;-75
2022/12/01 10:51:55;;;;;;;40.67;17.70;;;2.60;99.90;;;;;;5011120;28;20568;-72
2022/12/01 10:54:38;;;;;;;47.70;18.97;;;2.60;99.90;;;;;;5012334;28;20231;-74
2022/12/01 10:57:15;;;;;;;39.67;18.27;;;2.60;99.90;;;;;;5012000;28;20208;-74
2022/12/01 10:59:59;;;;;;;50.57;19.77;;;2.60;99.90;;;;;;5012337;28;20596;-75
2022/12/01 11:02:29;;;;;;;42.27;18.83;;;2.60;99.90;;;;;;4995813;28;20684;-74
2022/12/01 11:05:03;;;;;;;46.07;20.17;;;2.70;99.90;;;;;;4995958;28;20196;-72
2022/12/01 11:07:49;;;;;;;45.07;19.13;;;2.60;99.90;;;;;;5011288;28;20634;-75
2022/12/01 11:10:34;;;;;;;46.20;20.00;;;2.70;99.90;;;;;;4993682;28;20222;-81
2022/12/01 11:13:27;;;;;;;45.13;19.17;;;2.60;99.90;;;;;;5009027;28;20216;-71
2022/12/01 11:15:57;;;;;;;46.47;19.40;;;2.60;99.90;;;;;;5009449;28;20199;-77
2022/12/01 11:18:34;;;;;;;47.23;18.87;;;2.70;99.90;;;;;;5010677;28;20660;-83
2022/12/01 11:21:07;;;;;;;47.73;19.23;;;2.60;99.90;;;;;;5013138;28;20195;-69
2022/12/01 11:23:46;;;;;;;43.10;18.63;;;2.60;99.90;;;;;;4995611;28;20206;-83
2022/12/01 11:26:31;;;;;;;43.37;19.20;;;2.60;99.90;;;;;;5001668;28;20199;-71
2022/12/01 11:29:19;;;;;;;46.10;19.57;;;2.60;99.90;;;;;;5013584;28;20213;-78
2022/12/01 11:31:49;;;;;;;48.37;19.57;;;2.60;99.90;;;;;;4999583;28;20211;-86
2022/12/01 11:34:37;;;;;;;49.87;21.40;;;2.60;99.90;;;;;;5001624;28;20661;-79
2022/12/01 11:37:14;;;;;;;47.47;20.23;;;2.60;99.90;;;;;;5011141;28;20189;-95
2022/12/01 11:39:43;;;;;;;52.20;21.77;;;2.60;99.90;;;;;;5012599;28;20218;-86
2022/12/01 11:42:10;;;;;;;56.03;22.20;;;2.50;99.90;;;;;;5018110;28;20196;-90
2022/12/01 11:44:38;;;;;;;52.00;22.00;;;2.60;99.90;;;;;;4993251;28;20677;-83
2022/12/01 11:47:24;;;;;;;53.10;20.50;;;2.50;99.90;;;;;;5007533;28;20250;-93
2022/12/01 11:50:00;;;;;;;48.43;21.53;;;2.60;99.90;;;;;;5003545;28;20193;-91
2022/12/01 11:52:33;;;;;;;51.03;22.10;;;2.60;99.90;;;;;;5034167;28;20546;-68
2022/12/01 11:55:12;;;;;;;55.03;21.40;;;2.50;99.90;;;;;;5011038;28;20250;-77
2022/12/01 11:57:44;;;;;;;56.83;22.23;;;2.50;99.90;;;;;;5017377;28;20214;-68
2022/12/01 12:00:18;;;;;;;52.47;21.07;;;2.50;99.90;;;;;;5011625;28;20560;-67
2022/12/01 12:03:03;;;;;;;61.73;23.80;;;2.60;99.90;;;;;;5015644;28;20239;-70
2022/12/01 12:05:55;;;;;;;66.93;25.10;;;2.50;99.90;;;;;;5011820;28;20211;-69
2022/12/01 12:09:22;;;;;;;56.27;22.80;;;2.50;99.90;;;;;;5011769;28;20673;-69
2022/12/01 12:12:11;;;;;;;53.80;21.87;;;2.50;99.90;;;;;;4959258;28;20558;-72
2022/12/01 12:14:59;;;;;;;56.93;22.90;;;2.50;99.90;;;;;;4958274;28;20662;-78
2022/12/01 12:17:36;;;;;;;54.33;22.77;;;2.50;99.90;;;;;;4974917;28;20340;-69
2022/12/01 12:20:16;;;;;;;65.27;23.30;;;2.50;99.90;;;;;;4958973;28;20661;-84
2022/12/01 12:23:03;;;;;;;58.73;23.53;;;2.60;99.90;;;;;;4958204;28;20648;-79
2022/12/01 12:25:48;;;;;;;67.80;22.90;;;2.60;99.90;;;;;;4972699;28;20227;-85
2022/12/01 12:28:38;;;;;;;56.10;21.60;;;2.50;99.90;;;;;;4973133;28;20585;-69
2022/12/01 12:31:32;;;;;;;56.53;21.10;;;2.40;99.90;;;;;;4956248;28;20568;-72
2022/12/01 12:34:13;;;;;;;70.13;22.77;;;2.30;99.90;;;;;;4973936;28;20690;-71
2022/12/01 12:37:14;;;;;;;61.00;22.33;;;2.40;99.90;;;;;;4973610;28;20628;-71
2022/12/01 12:39:49;;;;;;;55.30;21.40;;;2.30;99.90;;;;;;4957665;28;20636;-76
2022/12/01 12:42:42;;;;;;;53.33;20.77;;;2.40;99.90;;;;;;4940983;28;20685;-71
2022/12/01 12:45:30;;;;;;;47.00;18.60;;;2.30;99.90;;;;;;4973627;28;20225;-80
2022/12/01 12:48:35;;;;;;;42.97;17.73;;;2.30;99.90;;;;;;4968401;28;20581;-82
2022/12/01 12:51:37;;;;;;;42.97;17.97;;;2.30;99.90;;;;;;5034956;28;20206;-71
2022/12/01 12:54:21;;;;;;;44.67;16.97;;;2.20;99.90;;;;;;5031268;28;20642;-77
2022/12/01 12:56:54;;;;;;;37.67;17.03;;;2.20;99.90;;;;;;5013522;28;20728;-77
2022/12/01 12:59:45;;;;;;;39.03;15.47;;;2.20;99.90;;;;;;4996424;28;20717;-77
2022/12/01 13:02:54;;;;;;;30.67;14.00;;;2.20;99.90;;;;;;5010349;28;20192;-76
2022/12/01 13:05:39;;;;;;;27.13;12.57;;;2.00;99.90;;;;;;5020330;28;20203;-77
2022/12/01 13:08:56;;;;;;;29.40;12.87;;;2.10;99.90;;;;;;5012236;28;20237;-75
2022/12/01 13:11:42;;;;;;;25.90;12.40;;;2.10;99.90;;;;;;5013889;28;20279;-84
2022/12/01 13:14:27;;;;;;;25.87;11.80;;;2.00;99.90;;;;;;4999151;28;20187;-81
2022/12/01 13:17:12;;;;;;;24.00;10.90;;;2.00;99.90;;;;;;5028625;28;20225;-82
2022/12/01 13:20:12;;;;;;;19.63;9.90;;;2.00;99.90;;;;;;4976804;28;20199;-81